Time;durP1;ratioP1;P1;durP2;ratioP2;P2;SDS_P1;SDS_P2;PMS_P1;PMS_P2;Temp;Humidity;BMP_temperature;BMP_pressure;BME280_temperature;BME280_humidity;BME280_pressure;Samples;Min_cycle;Max_cycle;Signal;HPM_P1;HPM_P2
2022/03/26 00:02:15;;;;;;;39.33;24.42;;;;;;;7.46;100.00;101980.56;5027760;28;20032;-58
2022/03/26 00:04:40;;;;;;;36.70;25.70;;;;;;;7.43;100.00;101984.06;5025982;28;20089;-58
2022/03/26 00:07:05;;;;;;;31.35;25.25;;;;;;;7.42;100.00;101989.31;5025949;28;20064;-58
2022/03/26 00:09:31;;;;;;;31.63;23.48;;;;;;;7.39;100.00;101991.97;5025975;28;20834;-58
2022/03/26 00:11:56;;;;;;;39.08;25.88;;;;;;;7.36;100.00;101982.41;5027406;28;20171;-58
2022/03/26 00:14:22;;;;;;;33.95;24.95;;;;;;;7.36;100.00;101994.63;5026009;28;20024;-58
2022/03/26 00:16:47;;;;;;;39.15;25.85;;;;;;;7.28;100.00;101984.22;5026104;28;20877;-58
2022/03/26 00:19:14;;;;;;;40.10;25.58;;;;;;;7.37;100.00;101996.34;5025774;28;20086;-58
2022/03/26 00:21:40;;;;;;;34.25;25.92;;;;;;;7.37;100.00;101986.72;5025927;28;20090;-58
2022/03/26 00:24:06;;;;;;;32.08;23.60;;;;;;;7.34;100.00;101981.53;5026240;28;20042;-58
2022/03/26 00:26:32;;;;;;;32.95;25.40;;;;;;;7.09;100.00;101947.00;5025467;28;20276;-58
2022/03/26 00:28:57;;;;;;;35.22;24.05;;;;;;;7.27;100.00;101990.34;5024999;28;20046;-58
2022/03/26 00:31:23;;;;;;;32.75;24.35;;;;;;;7.26;100.00;101990.38;5024592;28;20032;-58
2022/03/26 00:33:48;;;;;;;36.55;26.92;;;;;;;7.23;100.00;101993.03;5024838;28;20032;-58
2022/03/26 00:36:14;;;;;;;33.30;24.33;;;;;;;7.19;100.00;101986.97;5025976;28;20482;-58
2022/03/26 00:38:39;;;;;;;34.35;24.80;;;;;;;7.12;100.00;101988.78;5027013;28;20738;-58
2022/03/26 00:41:04;;;;;;;45.85;26.75;;;;;;;7.07;100.00;101990.56;5029635;28;20942;-58
2022/03/26 00:43:30;;;;;;;33.22;25.33;;;;;;;6.99;100.00;101997.63;5027742;28;20024;-58
2022/03/26 00:45:55;;;;;;;44.30;26.42;;;;;;;6.94;100.00;101995.91;5032005;28;20029;-58
2022/03/26 00:48:20;;;;;;;41.72;25.02;;;;;;;6.88;100.00;101985.53;5029743;28;20913;-58
2022/03/26 00:50:46;;;;;;;36.40;25.65;;;;;;;6.86;100.00;101977.69;5030194;28;20853;-58
2022/03/26 00:53:11;;;;;;;38.55;25.50;;;;;;;6.90;100.00;101992.47;5043698;28;20039;-58
2022/03/26 00:55:37;;;;;;;45.75;26.75;;;;;;;6.89;100.00;101990.75;5028498;28;20024;-58
2022/03/26 00:58:02;;;;;;;33.42;25.52;;;;;;;6.48;100.00;101919.75;5028094;28;20938;-58
2022/03/26 01:00:28;;;;;;;34.88;26.52;;;;;;;6.84;100.00;101997.75;5028025;28;20028;-58
2022/03/26 01:02:53;;;;;;;38.65;26.90;;;;;;;6.73;100.00;101989.13;5028302;28;20059;-58
2022/03/26 01:05:19;;;;;;;43.80;26.88;;;;;;;6.73;100.00;101990.88;5044404;28;20063;-58
2022/03/26 01:07:46;;;;;;;30.73;25.25;;;;;;;6.73;100.00;101996.09;5030408;28;20036;-58
2022/03/26 01:10:13;;;;;;;39.70;27.15;;;;;;;6.68;100.00;101991.81;5026800;28;20692;-58
2022/03/26 01:12:38;;;;;;;43.33;27.88;;;;;;;6.62;100.00;101975.31;5027613;28;20025;-58
2022/03/26 01:15:05;;;;;;;41.58;30.20;;;;;;;6.58;100.00;101981.44;5029881;28;20027;-58
2022/03/26 01:17:30;;;;;;;46.22;28.40;;;;;;;6.62;100.00;101980.56;5029910;28;20044;-58
2022/03/26 01:19:55;;;;;;;39.90;26.10;;;;;;;6.56;100.00;101977.97;5026532;28;20032;-58
2022/03/26 01:22:21;;;;;;;42.20;27.77;;;;;;;6.45;100.00;101966.78;5028033;28;20817;-58
2022/03/26 01:24:46;;;;;;;37.05;26.90;;;;;;;6.37;100.00;101979.88;5027663;28;20106;-58
2022/03/26 01:27:12;;;;;;;36.42;27.45;;;;;;;5.96;100.00;101927.97;5028576;28;20143;-58
2022/03/26 01:29:38;;;;;;;48.53;28.00;;;;;;;6.18;100.00;101983.50;5027475;28;20710;-58
2022/03/26 01:32:08;;;;;;;40.20;26.35;;;;;;;6.04;100.00;101975.75;5028507;28;20936;-58
2022/03/26 01:34:34;;;;;;;39.55;27.17;;;;;;;5.91;100.00;101979.31;5027736;28;20035;-58
2022/03/26 01:37:01;;;;;;;41.47;27.67;;;;;;;5.75;100.00;101966.31;5027708;28;20135;-58
2022/03/26 01:39:27;;;;;;;49.65;28.88;;;;;;;5.70;100.00;101966.34;5027412;28;20062;-58
2022/03/26 01:41:52;;;;;;;38.78;27.17;;;;;;;5.64;100.00;101967.22;5027037;28;20059;-58
2022/03/26 01:44:18;;;;;;;40.45;29.70;;;;;;;5.58;100.00;101969.00;5022507;28;20050;-57
2022/03/26 01:46:48;;;;;;;37.60;29.90;;;;;;;5.52;100.00;101969.91;5008734;28;20255;-57
2022/03/26 01:49:13;;;;;;;43.80;30.02;;;;;;;5.46;100.00;101974.28;5007173;28;20267;-58
2022/03/26 01:51:39;;;;;;;44.85;27.88;;;;;;;5.32;100.00;101963.03;5007225;28;20067;-57
2022/03/26 01:54:04;;;;;;;45.22;27.83;;;;;;;5.32;100.00;101973.44;5006907;28;20067;-58
2022/03/26 01:56:30;;;;;;;40.65;28.85;;;;;;;5.30;100.00;101977.81;5008095;28;20032;-58
2022/03/26 01:58:55;;;;;;;38.50;28.30;;;;;;;5.27;100.00;101954.38;5007228;28;20037;-58
2022/03/26 02:01:21;;;;;;;43.55;28.75;;;;;;;5.34;100.00;101966.53;5007227;28;20044;-58
2022/03/26 02:03:46;;;;;;;54.38;32.58;;;;;;;5.43;100.00;101979.50;5008915;28;20040;-58
2022/03/26 02:06:12;;;;;;;48.85;29.52;;;;;;;5.46;100.00;101964.72;5007386;28;20036;-58
2022/03/26 02:08:37;;;;;;;45.42;30.15;;;;;;;5.42;100.00;101951.69;5008517;28;20300;-58
2022/03/26 02:11:03;;;;;;;45.40;31.10;;;;;;;5.43;100.00;101963.88;5006964;28;20135;-57
2022/03/26 02:13:49;;;;;;;40.45;28.02;;;;;;;5.45;100.00;101964.72;5009017;28;20096;-57
2022/03/26 02:16:15;;;;;;;42.95;31.05;;;;;;;5.17;100.00;101908.38;5006600;28;20036;-57
2022/03/26 02:18:40;;;;;;;42.58;29.08;;;;;;;5.48;100.00;101955.13;5006816;28;20160;-57
2022/03/26 02:21:06;;;;;;;44.05;29.25;;;;;;;5.40;100.00;101950.84;5007834;28;20029;-57
2022/03/26 02:23:31;;;;;;;42.25;29.60;;;;;;;5.32;100.00;101950.88;5007198;28;20063;-57
2022/03/26 02:25:56;;;;;;;47.50;30.80;;;;;;;5.25;100.00;101954.38;5007503;28;21122;-58
2022/03/26 02:28:22;;;;;;;40.60;29.50;;;;;;;4.99;100.00;101925.81;5007040;28;20068;-57
2022/03/26 02:30:48;;;;;;;46.30;29.27;;;;;;;4.98;100.00;101937.09;5022310;28;20072;-57
2022/03/26 02:33:13;;;;;;;38.97;29.98;;;;;;;4.98;100.00;101952.72;5021766;28;20053;-57
2022/03/26 02:35:38;;;;;;;39.05;29.23;;;;;;;4.89;100.00;101959.69;5007962;28;20025;-58
2022/03/26 02:38:04;;;;;;;44.25;32.78;;;;;;;4.89;100.00;101954.47;5006990;28;20785;-58
2022/03/26 02:40:29;;;;;;;41.70;30.70;;;;;;;4.91;100.00;101963.13;5008899;28;20945;-58
2022/03/26 02:42:55;;;;;;;49.35;32.25;;;;;;;4.89;100.00;101964.88;5006887;28;20920;-58
2022/03/26 02:45:20;;;;;;;50.08;32.88;;;;;;;4.99;100.00;101962.28;5007248;28;20025;-58
2022/03/26 02:47:48;;;;;;;44.00;32.22;;;;;;;4.94;100.00;101953.59;5006832;28;20796;-58
2022/03/26 02:50:14;;;;;;;42.03;30.05;;;;;;;4.99;100.00;101962.28;5007583;28;20025;-58
2022/03/26 02:52:39;;;;;;;46.90;31.58;;;;;;;4.95;100.00;101964.88;5005537;28;20072;-58
2022/03/26 02:55:08;;;;;;;49.63;30.92;;;;;;;5.00;100.00;101963.97;5007523;28;20017;-57
2022/03/26 02:57:33;;;;;;;51.10;31.60;;;;;;;4.84;100.00;101945.78;5005297;28;20079;-57
2022/03/26 02:59:58;;;;;;;62.75;34.33;;;;;;;4.95;100.00;101960.53;5009507;28;20745;-58
2022/03/26 03:02:24;;;;;;;38.95;30.73;;;;;;;5.02;100.00;101964.88;5026167;28;20025;-58
2022/03/26 03:04:49;;;;;;;44.33;31.70;;;;;;;4.99;100.00;101958.78;5028592;28;20033;-58
2022/03/26 03:07:15;;;;;;;47.28;31.58;;;;;;;5.02;100.00;101964.88;5027712;28;20865;-58
2022/03/26 03:09:40;;;;;;;38.70;29.25;;;;;;;5.03;100.00;101961.41;5027404;28;20052;-58
2022/03/26 03:12:06;;;;;;;40.00;30.20;;;;;;;4.90;100.00;101962.25;5026647;28;20820;-58
2022/03/26 03:14:32;;;;;;;50.38;31.58;;;;;;;4.90;100.00;101951.84;5026408;28;20114;-58
2022/03/26 03:16:57;;;;;;;41.28;31.85;;;;;;;4.95;100.00;101950.13;5027303;28;20025;-58
2022/03/26 03:19:23;;;;;;;43.75;30.52;;;;;;;5.07;100.00;101975.25;5027271;28;20037;-58
2022/03/26 03:21:48;;;;;;;38.60;29.85;;;;;;;5.04;100.00;101970.06;5028104;28;20907;-58
2022/03/26 03:24:13;;;;;;;43.63;29.70;;;;;;;4.93;100.00;101970.09;5026524;28;20035;-58
2022/03/26 03:26:39;;;;;;;39.50;30.73;;;;;;;4.88;100.00;101979.66;5024825;28;20028;-58
2022/03/26 03:29:04;;;;;;;43.35;31.15;;;;;;;4.87;100.00;101977.03;5025522;28;20044;-58
2022/03/26 03:31:29;;;;;;;48.55;32.13;;;;;;;4.87;100.00;101977.91;5025927;28;20060;-57
2022/03/26 03:33:55;;;;;;;46.67;32.15;;;;;;;4.53;100.00;101919.81;5026714;28;20954;-58
2022/03/26 03:36:21;;;;;;;48.55;30.17;;;;;;;4.92;100.00;101976.16;5027414;28;20036;-58
2022/03/26 03:38:46;;;;;;;50.95;31.88;;;;;;;4.98;100.00;101978.75;5026145;28;20056;-58
2022/03/26 03:41:11;;;;;;;45.35;31.85;;;;;;;4.98;100.00;101970.06;5028146;28;20081;-58
2022/03/26 03:43:37;;;;;;;42.40;30.35;;;;;;;4.59;100.00;101904.19;5027701;28;20082;-58
2022/03/26 03:46:02;;;;;;;43.78;30.77;;;;;;;4.89;100.00;101964.88;5028635;28;20033;-58
2022/03/26 03:48:28;;;;;;;41.95;27.65;;;;;;;4.81;100.00;101979.66;5028073;28;20851;-58
2022/03/26 03:50:53;;;;;;;43.70;31.10;;;;;;;4.66;100.00;101980.56;5025758;28;20037;-58
2022/03/26 03:53:19;;;;;;;46.85;32.25;;;;;;;4.58;100.00;101979.66;5025916;28;20815;-58
2022/03/26 03:55:44;;;;;;;45.55;30.85;;;;;;;4.53;100.00;101981.38;5027393;28;20783;-58
2022/03/26 03:58:09;;;;;;;42.17;29.92;;;;;;;4.42;100.00;101977.94;5025050;28;20031;-58
2022/03/26 04:00:35;;;;;;;47.30;32.17;;;;;;;4.34;100.00;101979.66;5024895;28;20078;-57
2022/03/26 04:03:00;;;;;;;43.95;31.75;;;;;;;4.06;100.00;101938.00;5026729;28;20100;-57
2022/03/26 04:05:26;;;;;;;51.92;31.95;;;;;;;4.20;100.00;101969.25;5025218;28;20025;-58
2022/03/26 04:07:51;;;;;;;48.28;30.67;;;;;;;4.18;100.00;101983.13;5026893;28;20021;-58
2022/03/26 04:10:17;;;;;;;49.15;33.47;;;;;;;4.13;100.00;101975.28;5024994;28;20070;-58
2022/03/26 04:12:43;;;;;;;41.75;28.50;;;;;;;4.12;100.00;101987.44;5027794;28;20062;-58
2022/03/26 04:15:10;;;;;;;46.70;32.47;;;;;;;4.15;100.00;101988.31;5028962;28;21011;-58
2022/03/26 04:17:36;;;;;;;49.05;32.83;;;;;;;4.18;100.00;101983.13;5029941;28;20032;-57
2022/03/26 04:20:03;;;;;;;41.13;30.38;;;;;;;4.20;100.00;101990.06;5028716;28;20892;-58
2022/03/26 04:22:29;;;;;;;48.10;32.72;;;;;;;4.26;100.00;101994.41;5045824;28;20042;-58
2022/03/26 04:24:54;;;;;;;44.10;30.60;;;;;;;4.26;100.00;101991.81;5029141;28;20020;-58
2022/03/26 04:27:20;;;;;;;46.75;33.40;;;;;;;4.09;100.00;101956.22;5029582;28;20043;-58
2022/03/26 04:29:45;;;;;;;51.17;34.72;;;;;;;4.37;100.00;101982.25;5029995;28;20089;-58
2022/03/26 04:32:10;;;;;;;57.97;32.15;;;;;;;4.21;100.00;101959.72;5029800;28;20921;-58
2022/03/26 04:34:37;;;;;;;37.33;30.90;;;;;;;4.26;100.00;101986.63;5030315;28;20251;-58
2022/03/26 04:37:04;;;;;;;45.40;32.58;;;;;;;4.24;100.00;101993.53;5028609;28;20028;-59
2022/03/26 04:39:29;;;;;;;46.38;32.42;;;;;;;4.04;100.00;101970.97;5028754;28;20080;-58
2022/03/26 04:41:55;;;;;;;45.17;32.40;;;;;;;3.84;100.00;101946.66;5029012;28;20784;-59
2022/03/26 04:44:20;;;;;;;53.22;35.30;;;;;;;4.10;100.00;101996.97;5029067;28;20028;-58
2022/03/26 04:46:45;;;;;;;44.63;34.55;;;;;;;4.09;100.00;101990.03;5029085;28;20546;-58
2022/03/26 04:49:11;;;;;;;59.58;34.67;;;;;;;4.10;100.00;102001.31;5028986;28;20736;-59
2022/03/26 04:51:36;;;;;;;57.90;34.55;;;;;;;3.96;100.00;101982.19;5028303;28;20128;-58
2022/03/26 04:54:02;;;;;;;52.55;35.85;;;;;;;4.05;100.00;101972.72;5027431;28;20063;-58
2022/03/26 04:56:27;;;;;;;47.88;33.67;;;;;;;3.97;100.00;101940.59;5028608;28;20039;-58
2022/03/26 04:58:55;;;;;;;44.78;31.95;;;;;;;4.22;100.00;101984.88;5027989;28;20032;-58
2022/03/26 05:01:22;;;;;;;46.63;30.05;;;;;;;4.19;100.00;101990.06;5028024;28;20032;-58
2022/03/26 05:03:48;;;;;;;46.58;32.00;;;;;;;4.04;100.00;101993.50;5029149;28;20039;-58
2022/03/26 05:06:13;;;;;;;49.53;32.38;;;;;;;3.90;100.00;101997.78;5027939;28;20791;-58
2022/03/26 05:08:38;;;;;;;42.00;29.10;;;;;;;3.79;100.00;101996.88;5027681;28;20059;-58
2022/03/26 05:11:05;;;;;;;40.00;29.23;;;;;;;3.63;100.00;102000.28;5029035;28;20036;-58
2022/03/26 05:13:30;;;;;;;46.63;30.25;;;;;;;3.42;100.00;101986.34;5028707;28;20033;-58
2022/03/26 05:15:55;;;;;;;41.03;30.63;;;;;;;3.35;100.00;101996.69;5028052;28;20137;-58
2022/03/26 05:18:21;;;;;;;48.72;34.30;;;;;;;3.30;100.00;101991.50;5028990;28;20061;-58
2022/03/26 05:20:46;;;;;;;48.40;33.15;;;;;;;3.32;100.00;102002.75;5028276;28;20035;-58
2022/03/26 05:23:11;;;;;;;47.40;31.63;;;;;;;3.31;100.00;102000.16;5027727;28;20075;-58
2022/03/26 05:25:37;;;;;;;48.63;34.35;;;;;;;3.23;100.00;101997.50;5028486;28;20039;-58
2022/03/26 05:28:02;;;;;;;53.13;35.97;;;;;;;3.23;100.00;101996.66;5029737;28;20092;-58
2022/03/26 05:30:28;;;;;;;57.88;37.08;;;;;;;3.21;100.00;102006.16;5029764;28;20078;-58
2022/03/26 05:32:55;;;;;;;45.78;34.28;;;;;;;3.15;100.00;102006.97;5030077;28;20919;-58
2022/03/26 05:35:21;;;;;;;45.38;32.83;;;;;;;3.06;100.00;102006.94;5032605;28;20850;-58
2022/03/26 05:37:47;;;;;;;41.58;31.95;;;;;;;2.93;100.00;102002.53;5035423;28;20050;-58
2022/03/26 05:40:16;;;;;;;52.20;32.67;;;;;;;2.91;100.00;102015.47;5034704;28;20024;-58
2022/03/26 05:42:42;;;;;;;47.17;33.90;;;;;;;2.90;100.00;102013.75;5034980;28;20041;-58
2022/03/26 05:45:08;;;;;;;52.33;35.45;;;;;;;2.62;100.00;101961.63;5041161;28;20036;-58
2022/03/26 05:47:35;;;;;;;52.00;35.17;;;;;;;2.95;100.00;102012.06;5043346;28;20029;-58
2022/03/26 05:50:01;;;;;;;45.78;33.88;;;;;;;3.03;100.00;102015.59;5043328;28;20020;-57
2022/03/26 05:52:27;;;;;;;55.22;36.40;;;;;;;3.14;100.00;102019.97;5043257;28;20024;-57
2022/03/26 05:54:52;;;;;;;48.53;34.65;;;;;;;3.20;100.00;102017.41;5044033;28;20039;-57
2022/03/26 05:57:21;;;;;;;50.20;35.63;;;;;;;3.24;100.00;102020.03;5046733;28;20028;-58
2022/03/26 05:59:46;;;;;;;51.33;34.05;;;;;;;3.27;100.00;102016.59;5049138;28;20028;-58
2022/03/26 06:02:13;;;;;;;49.70;32.78;;;;;;;3.28;100.00;102024.38;5050013;28;20063;-58
2022/03/26 06:04:42;;;;;;;51.65;33.20;;;;;;;3.24;100.00;102032.16;5050339;28;20137;-58
2022/03/26 06:07:08;;;;;;;44.47;31.15;;;;;;;3.11;100.00;102019.97;5047213;28;20073;-58
2022/03/26 06:09:35;;;;;;;52.28;34.80;;;;;;;2.91;100.00;101999.91;5051223;28;20032;-58
2022/03/26 06:12:01;;;;;;;56.60;35.88;;;;;;;3.15;100.00;102038.16;5050177;28;20143;-58
2022/03/26 06:14:26;;;;;;;49.65;32.53;;;;;;;3.12;100.00;102039.84;5050170;28;20086;-58
2022/03/26 06:16:52;;;;;;;51.28;35.22;;;;;;;3.15;100.00;102034.66;5049789;28;20834;-58
2022/03/26 06:19:17;;;;;;;52.15;36.30;;;;;;;3.24;100.00;102050.34;5050830;28;20032;-58
2022/03/26 06:21:43;;;;;;;52.70;34.45;;;;;;;3.27;100.00;102055.53;5050955;28;20028;-57
2022/03/26 06:24:08;;;;;;;52.33;34.67;;;;;;;3.18;100.00;102022.56;5050466;28;20036;-58
2022/03/26 06:26:36;;;;;;;53.45;34.65;;;;;;;3.25;100.00;102026.06;5050523;28;20806;-58
2022/03/26 06:29:01;;;;;;;49.60;34.80;;;;;;;3.41;100.00;102040.91;5053414;28;20052;-58
2022/03/26 06:31:27;;;;;;;51.10;34.25;;;;;;;3.40;100.00;102027.06;5052876;28;20035;-58
2022/03/26 06:33:52;;;;;;;41.58;32.17;;;;;;;3.66;100.00;102047.97;5054384;28;20035;-58
2022/03/26 06:36:18;;;;;;;55.90;35.95;;;;;;;3.64;100.00;102017.63;5050778;28;20584;-58
2022/03/26 06:38:44;;;;;;;56.10;36.35;;;;;;;4.02;100.00;102065.44;5050777;28;20031;-58
2022/03/26 06:41:12;;;;;;;51.05;37.50;;;;;;;4.06;100.00;102044.63;5047603;28;20148;-57
2022/03/26 06:43:41;;;;;;;55.42;37.03;;;;;;;4.42;100.00;102058.59;5044759;28;20165;-58
2022/03/26 06:46:07;;;;;;;54.78;36.70;;;;;;;4.47;100.00;102031.72;5044070;28;20036;-58
2022/03/26 06:48:33;;;;;;;53.53;35.53;;;;;;;4.86;100.00;102063.84;5043734;28;20056;-58
2022/03/26 06:51:00;;;;;;;60.28;35.95;;;;;;;5.03;100.00;102060.38;5043157;28;20861;-58
2022/03/26 06:53:29;;;;;;;46.60;35.05;;;;;;;5.04;100.00;102036.03;5040848;28;20028;-58
2022/03/26 06:55:55;;;;;;;52.83;37.45;;;;;;;5.38;100.00;102069.84;5039642;28;20037;-58
2022/03/26 06:58:21;;;;;;;54.38;36.42;;;;;;;5.48;100.00;102072.44;5038744;28;20158;-58
2022/03/26 07:00:46;;;;;;;51.97;34.90;;;;;;;5.65;100.00;102062.84;5037277;28;20037;-58
2022/03/26 07:03:11;;;;;;;57.10;36.53;;;;;;;5.81;100.00;102075.84;5033997;28;20534;-58
2022/03/26 07:05:37;;;;;;;52.15;35.20;;;;;;;5.98;100.00;102077.53;5028591;28;20081;-58
2022/03/26 07:08:03;;;;;;;40.85;32.38;;;;;;;6.17;100.00;102078.31;5029928;28;20083;-58
2022/03/26 07:10:29;;;;;;;52.72;34.55;;;;;;;6.29;100.00;102074.75;5027614;28;20965;-58
2022/03/26 07:12:54;;;;;;;59.10;33.33;;;;;;;6.44;100.00;102079.91;5026482;28;20354;-58
2022/03/26 07:15:20;;;;;;;43.30;32.40;;;;;;;6.42;100.00;102066.00;5027387;28;20910;-58
2022/03/26 07:17:45;;;;;;;46.65;32.17;;;;;;;6.62;100.00;102093.69;5027216;28;20040;-58
2022/03/26 07:20:11;;;;;;;50.00;33.28;;;;;;;6.70;100.00;102093.66;5025756;28;20234;-58
2022/03/26 07:22:37;;;;;;;45.45;32.05;;;;;;;6.82;100.00;102088.34;5024803;28;20032;-58
2022/03/26 07:25:04;;;;;;;46.55;32.10;;;;;;;6.89;100.00;102090.03;5024044;28;20035;-58
2022/03/26 07:27:34;;;;;;;41.20;32.45;;;;;;;7.00;100.00;102098.63;5005341;28;20028;-58
2022/03/26 07:29:59;;;;;;;46.72;31.50;;;;;;;7.02;100.00;102081.22;5006120;28;20032;-58
2022/03/26 07:32:25;;;;;;;46.55;31.95;;;;;;;7.15;100.00;102093.28;5006912;28;20029;-58
2022/03/26 07:34:51;;;;;;;45.72;33.50;;;;;;;7.09;100.00;102062.00;5005059;28;20082;-58
2022/03/26 07:37:17;;;;;;;49.65;31.80;;;;;;;7.36;100.00;102101.81;5005637;28;20851;-58
2022/03/26 07:39:42;;;;;;;40.15;31.17;;;;;;;7.45;100.00;102096.50;5004869;28;20427;-58
2022/03/26 07:42:07;;;;;;;41.45;31.08;;;;;;;7.52;100.00;102092.94;5004865;28;20998;-58
2022/03/26 07:44:33;;;;;;;42.53;31.25;;;;;;;7.60;100.00;102101.56;5004726;28;20039;-58
2022/03/26 07:46:58;;;;;;;41.67;31.30;;;;;;;7.68;100.00;102110.19;5004760;28;20032;-58
2022/03/26 07:49:24;;;;;;;44.05;31.75;;;;;;;7.71;100.00;102099.69;5004773;28;20032;-58
2022/03/26 07:51:49;;;;;;;45.30;31.15;;;;;;;7.62;100.00;102071.03;5006139;28;20914;-58
2022/03/26 07:54:15;;;;;;;48.70;33.90;;;;;;;7.95;100.00;102109.88;5004337;28;20090;-58
2022/03/26 07:56:40;;;;;;;41.50;29.63;;;;;;;7.99;100.00;102111.59;5004455;28;20883;-58
2022/03/26 07:59:05;;;;;;;41.53;32.20;;;;;;;8.08;100.00;102116.69;5004216;28;20039;-58
2022/03/26 08:01:31;;;;;;;41.13;30.05;;;;;;;8.19;100.00;102122.69;5004248;28;20036;-58
2022/03/26 08:03:57;;;;;;;50.33;31.23;;;;;;;8.19;100.00;102106.97;5004729;28;20029;-58
2022/03/26 08:06:23;;;;;;;47.25;31.88;;;;;;;8.37;100.00;102120.75;5005397;28;20044;-58
2022/03/26 08:08:49;;;;;;;45.65;31.90;;;;;;;8.43;100.00;102121.53;5005319;28;20045;-58
2022/03/26 08:11:14;;;;;;;37.22;30.23;;;;;;;8.43;100.00;102107.56;5004419;28;20115;-58
2022/03/26 08:13:40;;;;;;;50.60;31.25;;;;;;;8.51;100.00;102110.94;5004430;28;20029;-58
2022/03/26 08:16:07;;;;;;;43.35;32.63;;;;;;;8.70;100.00;102128.13;5004624;28;20330;-58
2022/03/26 08:18:33;;;;;;;44.58;33.25;;;;;;;8.75;100.00;102128.94;5004157;28;20036;-58
2022/03/26 08:20:58;;;;;;;46.70;32.28;;;;;;;8.82;100.00;102130.53;5004409;28;20139;-58
2022/03/26 08:23:24;;;;;;;46.88;30.05;;;;;;;8.81;100.00;102126.22;5004264;28;20091;-58
2022/03/26 08:28:33;;;;;;;38.88;30.13;;;;;;;8.93;100.00;102122.53;5044630;28;20047;-58
2022/03/26 08:30:58;;;;;;;50.72;30.92;;;;;;;9.05;100.00;102141.56;5043949;28;20055;-58
2022/03/26 08:33:23;;;;;;;41.38;30.08;;;;;;;9.09;100.00;102140.59;5044008;28;20032;-58
2022/03/26 08:35:49;;;;;;;38.92;30.48;;;;;;;9.14;100.00;102135.28;5045069;28;20792;-58
2022/03/26 08:38:14;;;;;;;39.58;30.40;;;;;;;9.22;100.00;102128.19;5044133;28;20035;-58
2022/03/26 08:40:40;;;;;;;47.17;31.75;;;;;;;9.20;100.00;102108.97;5044028;28;20028;-58
2022/03/26 08:43:06;;;;;;;41.50;30.33;;;;;;;9.46;100.00;102137.38;5044807;28;20191;-58
2022/03/26 08:45:31;;;;;;;37.20;29.65;;;;;;;9.50;100.00;102133.78;5044884;28;20089;-58
2022/03/26 08:47:57;;;;;;;38.17;29.25;;;;;;;9.53;100.00;102118.84;5045985;28;20035;-58
2022/03/26 08:50:23;;;;;;;37.72;29.17;;;;;;;9.70;100.00;102131.66;5044076;28;20881;-58
2022/03/26 08:52:49;;;;;;;31.92;26.63;;;;;;;9.70;100.00;102116.78;5043402;28;20040;-58
2022/03/26 08:55:16;;;;;;;36.28;28.88;;;;;;;9.80;100.00;102117.47;5044286;28;20826;-58
2022/03/26 08:57:41;;;;;;;36.60;28.38;;;;;;;10.00;100.00;102125.84;5044309;28;20032;-58
2022/03/26 09:00:08;;;;;;;36.90;28.95;;;;;;;10.17;100.00;102123.75;5046997;28;20024;-58
2022/03/26 09:02:33;;;;;;;38.97;28.70;;;;;;;10.31;100.00;102130.50;5048912;28;20036;-58
2022/03/26 09:04:59;;;;;;;35.15;26.60;;;;;;;10.47;100.00;102131.91;5049639;28;20036;-58
2022/03/26 09:07:25;;;;;;;42.25;28.35;;;;;;;10.51;100.00;102128.31;5048411;28;20081;-58
2022/03/26 09:09:50;;;;;;;35.88;26.38;;;;;;;10.56;100.00;102126.44;5048274;28;20034;-58
2022/03/26 09:12:15;;;;;;;41.38;27.33;;;;;;;10.67;100.00;102127.06;5051130;28;20024;-58
2022/03/26 09:14:41;;;;;;;32.50;26.05;;;;;;;10.77;100.00;102125.94;5047952;28;20875;-58
2022/03/26 09:17:06;;;;;;;31.23;23.85;;;;;;;10.53;100.00;102076.56;5047239;28;20020;-58
2022/03/26 09:19:32;;;;;;;33.35;27.08;;;;;;;10.96;100.00;102121.97;5047375;28;20032;-58
2022/03/26 09:21:58;;;;;;;40.08;25.95;;;;;;;10.93;100.00;102090.50;5047178;28;20036;-58
2022/03/26 09:24:23;;;;;;;36.47;26.52;;;;;;;11.15;100.00;102107.47;5047218;28;20028;-60
2022/03/26 09:26:49;;;;;;;40.22;27.63;;;;;;;11.35;100.00;102114.00;5012455;28;20093;-58
2022/03/26 09:29:15;;;;;;;32.47;24.20;;;;;;;11.51;100.00;102129.34;5047517;28;20032;-58
2022/03/26 09:31:41;;;;;;;40.10;25.55;;;;;;;11.64;100.00;102119.34;5047311;28;20032;-58
2022/03/26 09:34:06;;;;;;;36.05;25.42;;;;;;;11.77;100.00;102131.31;5049827;28;20122;-58
2022/03/26 09:36:31;;;;;;;41.72;26.35;;;;;;;11.66;100.00;102101.75;5048304;28;20079;-58
2022/03/26 09:38:57;;;;;;;38.25;24.48;;;;;;;11.89;100.00;102112.56;5047389;28;20048;-58
2022/03/26 09:41:25;;;;;;;32.03;24.33;;;;;;;12.06;100.00;102126.13;5048605;28;20028;-58
2022/03/26 09:43:50;;;;;;;40.60;25.98;;;;;;;12.09;100.00;102120.75;5049295;28;20032;-58
2022/03/26 09:46:18;;;;;;;34.95;23.73;;;;;;;12.25;100.00;102131.72;5048269;28;20860;-58
2022/03/26 09:48:43;;;;;;;36.58;24.23;;;;;;;12.21;100.00;102094.03;5049236;28;20919;-58
2022/03/26 09:51:09;;;;;;;45.53;25.50;;;;;;;12.48;100.00;102123.09;5049735;28;20042;-58
2022/03/26 09:53:35;;;;;;;41.60;24.42;;;;;;;12.60;100.00;102117.47;5045452;28;20823;-58
2022/03/26 09:56:00;;;;;;;36.40;24.92;;;;;;;12.71;100.00;102121.47;5048138;28;20912;-58
2022/03/26 09:58:26;;;;;;;33.15;23.83;;;;;;;12.85;100.00;102118.41;5048024;28;20024;-58
2022/03/26 10:00:53;;;;;;;28.42;21.52;;;;;;;12.90;97.62;102121.78;5046792;28;20231;-58
2022/03/26 10:03:19;;;;;;;34.70;21.67;;;;;;;12.81;91.39;102096.53;5047998;28;20032;-58
2022/03/26 10:05:45;;;;;;;28.02;21.25;;;;;;;13.03;93.43;102123.09;5047188;28;20131;-58
2022/03/26 10:08:23;;;;;;;31.13;21.45;;;;;;;13.10;88.28;102121.16;5047123;28;20931;-58
2022/03/26 10:10:50;;;;;;;24.33;19.70;;;;;;;13.21;86.28;102126.97;5028623;28;20027;-58
2022/03/26 10:13:33;;;;;;;28.33;20.35;;;;;;;13.24;85.60;102106.59;5046292;28;20426;-58
2022/03/26 10:16:07;;;;;;;31.00;21.70;;;;;;;13.53;85.88;102128.50;5046476;28;20032;-58
2022/03/26 10:18:37;;;;;;;32.78;19.92;;;;;;;13.42;81.88;102077.84;5046021;28;20161;-58
2022/03/26 10:21:06;;;;;;;30.42;22.10;;;;;;;13.67;82.14;102099.81;5046595;28;20035;-58
2022/03/26 10:23:32;;;;;;;28.08;19.88;;;;;;;13.88;79.56;102109.63;5048008;28;20827;-58
2022/03/26 10:26:18;;;;;;;34.28;21.17;;;;;;;13.94;78.13;102088.25;5047506;28;20044;-58
2022/03/26 10:28:50;;;;;;;29.30;19.05;;;;;;;14.09;77.08;102090.31;5047916;28;20028;-58
2022/03/26 10:34:10;;;;;;;34.03;18.58;;;;;;;14.64;73.14;102119.94;5039920;28;20043;-58
2022/03/26 10:36:36;;;;;;;30.13;20.33;;;;;;;14.50;74.12;102099.34;5046021;28;20870;-58
2022/03/26 10:39:03;;;;;;;28.90;21.02;;;;;;;14.63;77.08;102099.72;5045736;28;20020;-58
2022/03/26 10:41:31;;;;;;;32.03;23.08;;;;;;;14.74;72.76;102116.03;5045431;28;20039;-58
2022/03/26 10:44:12;;;;;;;30.13;21.83;;;;;;;14.66;71.73;102112.84;5046969;28;20024;-58
2022/03/26 10:46:57;;;;;;;25.40;19.63;;;;;;;14.67;75.09;102066.91;5047083;28;20035;-58
2022/03/26 10:49:31;;;;;;;29.13;20.08;;;;;;;15.18;75.26;102108.91;5047428;28;20135;-58
2022/03/26 10:51:57;;;;;;;31.10;22.48;;;;;;;15.23;73.16;102107.81;5047509;28;20035;-58
2022/03/26 10:54:32;;;;;;;37.15;23.42;;;;;;;15.26;73.80;102101.53;5045913;28;20071;-58
2022/03/26 10:56:59;;;;;;;35.55;23.10;;;;;;;15.30;73.16;102097.81;5045661;28;20980;-58
2022/03/26 10:59:25;;;;;;;36.30;23.42;;;;;;;15.32;73.00;102107.41;5045371;28;20994;-58
2022/03/26 11:01:51;;;;;;;33.72;24.13;;;;;;;15.29;74.56;102066.97;5045214;28;20024;-58
2022/03/26 11:04:18;;;;;;;34.00;24.25;;;;;;;15.65;73.30;102099.81;5045128;28;20105;-58
2022/03/26 11:06:44;;;;;;;27.42;21.23;;;;;;;15.79;72.61;102093.91;5046661;28;20024;-58
2022/03/26 11:09:10;;;;;;;34.78;22.27;;;;;;;15.90;73.78;102102.25;5045369;28;20130;-58
2022/03/26 11:11:36;;;;;;;31.17;23.83;;;;;;;16.06;72.80;102097.09;5045252;28;20024;-58